Airfield :
LOGIN :

Register | Disclaimer

   EN    FR    IT 

 










Legend :    VFR   Marginal VFR   IFR   Intensive IFR   Very Intensive IFR
Visi :
Ceiling :
>= 8 km
>= 3000ft
5 to 8 km
1000 to 3000 ft
1500m to 5 km
500 to 1000 ft
800 to 1500m
200 to 500 ft
< 800m
< 200 ft
Symbols :   Thunderstorms  Fog  Heavy snow  Heavy precipitations  Wind > 20 kt
SIGMETs :     Misc.  Thunderstorms  Icing  Turbulence  Mountain Waves  Volcanic Ashes






- Airport Elevation : 306 ft
- IATA code : EMA


EGNX - Nottingham East Midlands

CURRENT METAR :
  • 071850Z 26012KT 9999 FEW023 SCT045 10/08 Q1015

EXPIRED METARs :
  • 071820Z 27017KT 9999 -RA SCT023 BKN045 11/07 Q1014
  • 071750Z 31009KT 270V340 9999 VCSH SCT021 BKN035 12/09 Q1014
  • 071720Z 25010KT 9999 VCSH SCT040 13/09 Q1013
  • 071650Z 25011KT 9999 SCT033CB 13/09 Q1013
  • 071620Z 25013KT 9999 FEW025CB 14/09 Q1013
  • 071550Z 26014KT 9999 FEW016 14/10 Q1013

TAF TAF EGNX
Valid from the 07 at 18:00 until the 08 at 18:00 UTC


071702Z 0718/0818 26011KT 9999 FEW030
PROB30
TEMPO 0718/0721 27015G25KT
PROB30
TEMPO 0718/0720 7000 SHRA
BECMG 0815/0818 20006KT
ATIS : +44 1332 852 852 (ext 3201)



MET'MAP, your aeronautical weather chart ! - Copyright ORBIFLY December 2007 - Disclaimer

ORBIFLY MET'MAP TEAM :

Programming & Development : Alexandra Zaïnal
Original concept : Baudouin d'Aumeries
Technical & hardware support : Manuel Goepfert
Assistance : Marc-Olivier Méhu




SOURCES & CREDITS :

   NOAA